sensor_id;sensor_type;location;lat;lon;timestamp;P1;durP1;ratioP1;P2;durP2;ratioP2
15261;SDS011;7733;51.554;13.590;2023-07-09T00:01:21;7.37;;;6.90;;
15261;SDS011;7733;51.554;13.590;2023-07-09T00:03:47;6.50;;;6.10;;
15261;SDS011;7733;51.554;13.590;2023-07-09T00:06:16;7.50;;;6.83;;
15261;SDS011;7733;51.554;13.590;2023-07-09T00:08:43;6.57;;;6.17;;
15261;SDS011;7733;51.554;13.590;2023-07-09T00:11:12;6.87;;;6.47;;
15261;SDS011;7733;51.554;13.590;2023-07-09T00:13:40;7.13;;;6.53;;
15261;SDS011;7733;51.554;13.590;2023-07-09T00:16:13;6.90;;;6.40;;
15261;SDS011;7733;51.554;13.590;2023-07-09T00:18:46;7.07;;;6.57;;
15261;SDS011;7733;51.554;13.590;2023-07-09T00:21:13;6.90;;;6.40;;
15261;SDS011;7733;51.554;13.590;2023-07-09T00:23:42;6.67;;;6.17;;
15261;SDS011;7733;51.554;13.590;2023-07-09T00:26:09;6.60;;;6.23;;
15261;SDS011;7733;51.554;13.590;2023-07-09T00:28:38;6.33;;;6.03;;
15261;SDS011;7733;51.554;13.590;2023-07-09T00:31:07;7.53;;;6.77;;
15261;SDS011;7733;51.554;13.590;2023-07-09T00:33:40;6.83;;;6.33;;
15261;SDS011;7733;51.554;13.590;2023-07-09T00:36:16;7.53;;;6.83;;
15261;SDS011;7733;51.554;13.590;2023-07-09T00:38:59;6.63;;;6.20;;
15261;SDS011;7733;51.554;13.590;2023-07-09T00:41:31;6.53;;;6.13;;
15261;SDS011;7733;51.554;13.590;2023-07-09T00:44:20;6.83;;;6.33;;
15261;SDS011;7733;51.554;13.590;2023-07-09T00:49:32;8.00;;;7.17;;
15261;SDS011;7733;51.554;13.590;2023-07-09T00:52:18;7.50;;;6.90;;
15261;SDS011;7733;51.554;13.590;2023-07-09T00:54:55;7.20;;;6.73;;
15261;SDS011;7733;51.554;13.590;2023-07-09T00:57:27;7.57;;;7.07;;
15261;SDS011;7733;51.554;13.590;2023-07-09T00:59:56;7.20;;;6.60;;
15261;SDS011;7733;51.554;13.590;2023-07-09T01:02:35;7.30;;;6.87;;
15261;SDS011;7733;51.554;13.590;2023-07-09T01:05:04;7.43;;;6.70;;
15261;SDS011;7733;51.554;13.590;2023-07-09T01:07:31;7.90;;;7.10;;
15261;SDS011;7733;51.554;13.590;2023-07-09T01:09:57;7.63;;;7.13;;
15261;SDS011;7733;51.554;13.590;2023-07-09T01:12:23;7.00;;;6.60;;
15261;SDS011;7733;51.554;13.590;2023-07-09T01:14:51;6.97;;;6.60;;
15261;SDS011;7733;51.554;13.590;2023-07-09T01:17:23;7.17;;;6.70;;
15261;SDS011;7733;51.554;13.590;2023-07-09T01:19:53;7.20;;;6.70;;
15261;SDS011;7733;51.554;13.590;2023-07-09T01:22:21;7.57;;;6.93;;
15261;SDS011;7733;51.554;13.590;2023-07-09T01:27:28;7.60;;;6.90;;
15261;SDS011;7733;51.554;13.590;2023-07-09T01:30:04;7.30;;;6.90;;
15261;SDS011;7733;51.554;13.590;2023-07-09T01:32:33;7.30;;;6.80;;
15261;SDS011;7733;51.554;13.590;2023-07-09T01:35:02;6.73;;;6.43;;
15261;SDS011;7733;51.554;13.590;2023-07-09T01:37:32;7.00;;;6.60;;
15261;SDS011;7733;51.554;13.590;2023-07-09T01:40:03;7.13;;;6.73;;
15261;SDS011;7733;51.554;13.590;2023-07-09T01:42:31;7.13;;;6.63;;
15261;SDS011;7733;51.554;13.590;2023-07-09T01:44:57;7.17;;;6.77;;
15261;SDS011;7733;51.554;13.590;2023-07-09T01:47:24;7.33;;;6.77;;
15261;SDS011;7733;51.554;13.590;2023-07-09T01:49:50;7.93;;;7.27;;
15261;SDS011;7733;51.554;13.590;2023-07-09T01:52:21;7.43;;;6.93;;
15261;SDS011;7733;51.554;13.590;2023-07-09T01:54:50;7.30;;;6.80;;
15261;SDS011;7733;51.554;13.590;2023-07-09T01:57:25;7.83;;;7.13;;
15261;SDS011;7733;51.554;13.590;2023-07-09T02:00:00;7.40;;;7.00;;
15261;SDS011;7733;51.554;13.590;2023-07-09T02:02:41;7.80;;;7.30;;
15261;SDS011;7733;51.554;13.590;2023-07-09T02:05:11;7.80;;;7.30;;
15261;SDS011;7733;51.554;13.590;2023-07-09T02:07:41;8.00;;;7.30;;
15261;SDS011;7733;51.554;13.590;2023-07-09T02:10:07;7.87;;;7.37;;
15261;SDS011;7733;51.554;13.590;2023-07-09T02:12:35;8.20;;;7.60;;
15261;SDS011;7733;51.554;13.590;2023-07-09T02:15:00;7.67;;;7.17;;
15261;SDS011;7733;51.554;13.590;2023-07-09T02:17:26;7.20;;;6.80;;
15261;SDS011;7733;51.554;13.590;2023-07-09T02:19:52;7.47;;;7.00;;
15261;SDS011;7733;51.554;13.590;2023-07-09T02:22:18;7.67;;;7.23;;
15261;SDS011;7733;51.554;13.590;2023-07-09T02:24:44;8.20;;;7.60;;
15261;SDS011;7733;51.554;13.590;2023-07-09T02:27:10;7.47;;;6.87;;
15261;SDS011;7733;51.554;13.590;2023-07-09T02:29:40;7.70;;;7.17;;
15261;SDS011;7733;51.554;13.590;2023-07-09T02:32:06;7.60;;;7.20;;
15261;SDS011;7733;51.554;13.590;2023-07-09T02:34:33;8.07;;;7.57;;
15261;SDS011;7733;51.554;13.590;2023-07-09T02:37:00;7.70;;;7.20;;
15261;SDS011;7733;51.554;13.590;2023-07-09T02:39:26;6.93;;;6.63;;
15261;SDS011;7733;51.554;13.590;2023-07-09T02:41:52;7.97;;;7.30;;
15261;SDS011;7733;51.554;13.590;2023-07-09T02:44:18;7.73;;;7.30;;
15261;SDS011;7733;51.554;13.590;2023-07-09T02:46:44;8.17;;;7.47;;
15261;SDS011;7733;51.554;13.590;2023-07-09T02:49:11;7.43;;;7.00;;
15261;SDS011;7733;51.554;13.590;2023-07-09T02:51:39;31.23;;;19.90;;
15261;SDS011;7733;51.554;13.590;2023-07-09T02:54:05;14.13;;;11.93;;
15261;SDS011;7733;51.554;13.590;2023-07-09T02:56:31;10.50;;;9.53;;
15261;SDS011;7733;51.554;13.590;2023-07-09T02:58:57;9.27;;;8.47;;
15261;SDS011;7733;51.554;13.590;2023-07-09T03:01:23;8.70;;;8.00;;
15261;SDS011;7733;51.554;13.590;2023-07-09T03:03:52;9.50;;;8.53;;
15261;SDS011;7733;51.554;13.590;2023-07-09T03:06:20;8.67;;;7.90;;
15261;SDS011;7733;51.554;13.590;2023-07-09T03:08:47;8.83;;;8.03;;
15261;SDS011;7733;51.554;13.590;2023-07-09T03:11:14;8.53;;;7.80;;
15261;SDS011;7733;51.554;13.590;2023-07-09T03:13:41;8.73;;;8.00;;
15261;SDS011;7733;51.554;13.590;2023-07-09T03:16:07;9.60;;;8.70;;
15261;SDS011;7733;51.554;13.590;2023-07-09T03:18:33;8.80;;;8.20;;
15261;SDS011;7733;51.554;13.590;2023-07-09T03:20:59;8.10;;;7.50;;
15261;SDS011;7733;51.554;13.590;2023-07-09T03:23:25;8.50;;;7.80;;
15261;SDS011;7733;51.554;13.590;2023-07-09T03:25:51;10.40;;;9.30;;
15261;SDS011;7733;51.554;13.590;2023-07-09T03:28:17;30.10;;;21.77;;
15261;SDS011;7733;51.554;13.590;2023-07-09T03:30:43;35.73;;;24.47;;
15261;SDS011;7733;51.554;13.590;2023-07-09T03:33:13;9.90;;;8.90;;
15261;SDS011;7733;51.554;13.590;2023-07-09T03:35:42;8.60;;;7.90;;
15261;SDS011;7733;51.554;13.590;2023-07-09T03:38:09;8.90;;;8.33;;
15261;SDS011;7733;51.554;13.590;2023-07-09T03:40:36;9.17;;;8.47;;
15261;SDS011;7733;51.554;13.590;2023-07-09T03:43:03;9.50;;;8.60;;
15261;SDS011;7733;51.554;13.590;2023-07-09T03:45:30;8.97;;;8.17;;
15261;SDS011;7733;51.554;13.590;2023-07-09T03:47:57;8.60;;;7.90;;
15261;SDS011;7733;51.554;13.590;2023-07-09T03:50:24;8.70;;;8.03;;
15261;SDS011;7733;51.554;13.590;2023-07-09T03:52:49;8.37;;;7.87;;
15261;SDS011;7733;51.554;13.590;2023-07-09T03:55:15;7.60;;;7.00;;
15261;SDS011;7733;51.554;13.590;2023-07-09T03:57:41;7.40;;;6.97;;
15261;SDS011;7733;51.554;13.590;2023-07-09T04:00:07;7.80;;;7.30;;
15261;SDS011;7733;51.554;13.590;2023-07-09T04:02:39;8.40;;;7.80;;
15261;SDS011;7733;51.554;13.590;2023-07-09T04:05:06;8.10;;;7.60;;
15261;SDS011;7733;51.554;13.590;2023-07-09T04:07:35;8.13;;;7.53;;
15261;SDS011;7733;51.554;13.590;2023-07-09T04:10:02;7.60;;;7.10;;
15261;SDS011;7733;51.554;13.590;2023-07-09T04:12:29;7.80;;;7.30;;
15261;SDS011;7733;51.554;13.590;2023-07-09T04:14:55;9.33;;;8.50;;
15261;SDS011;7733;51.554;13.590;2023-07-09T04:17:21;14.97;;;12.03;;
15261;SDS011;7733;51.554;13.590;2023-07-09T04:19:48;13.33;;;11.97;;
15261;SDS011;7733;51.554;13.590;2023-07-09T04:22:17;11.80;;;10.67;;
15261;SDS011;7733;51.554;13.590;2023-07-09T04:24:43;8.43;;;7.80;;
15261;SDS011;7733;51.554;13.590;2023-07-09T04:27:09;9.10;;;8.37;;
15261;SDS011;7733;51.554;13.590;2023-07-09T04:29:35;8.33;;;7.80;;
15261;SDS011;7733;51.554;13.590;2023-07-09T04:32:03;8.63;;;8.07;;
15261;SDS011;7733;51.554;13.590;2023-07-09T04:34:31;9.07;;;8.37;;
15261;SDS011;7733;51.554;13.590;2023-07-09T04:36:57;8.57;;;7.90;;
15261;SDS011;7733;51.554;13.590;2023-07-09T04:39:23;9.17;;;8.37;;
15261;SDS011;7733;51.554;13.590;2023-07-09T04:41:49;8.90;;;8.20;;
15261;SDS011;7733;51.554;13.590;2023-07-09T04:44:15;8.83;;;7.53;;
15261;SDS011;7733;51.554;13.590;2023-07-09T04:46:41;8.30;;;7.70;;
15261;SDS011;7733;51.554;13.590;2023-07-09T04:49:07;8.07;;;7.57;;
15261;SDS011;7733;51.554;13.590;2023-07-09T04:51:33;7.60;;;7.10;;
15261;SDS011;7733;51.554;13.590;2023-07-09T04:53:59;7.40;;;6.90;;
15261;SDS011;7733;51.554;13.590;2023-07-09T04:56:28;7.73;;;7.13;;
15261;SDS011;7733;51.554;13.590;2023-07-09T04:58:55;7.20;;;6.80;;
15261;SDS011;7733;51.554;13.590;2023-07-09T05:01:21;6.80;;;6.50;;
15261;SDS011;7733;51.554;13.590;2023-07-09T05:03:47;6.93;;;6.43;;
15261;SDS011;7733;51.554;13.590;2023-07-09T05:06:13;6.70;;;6.10;;
15261;SDS011;7733;51.554;13.590;2023-07-09T05:08:39;7.50;;;6.90;;
15261;SDS011;7733;51.554;13.590;2023-07-09T05:11:06;7.50;;;7.00;;
15261;SDS011;7733;51.554;13.590;2023-07-09T05:13:32;6.60;;;6.20;;
15261;SDS011;7733;51.554;13.590;2023-07-09T05:15:58;7.00;;;6.43;;
15261;SDS011;7733;51.554;13.590;2023-07-09T05:18:24;9.17;;;6.23;;
15261;SDS011;7733;51.554;13.590;2023-07-09T05:20:50;6.40;;;5.90;;
15261;SDS011;7733;51.554;13.590;2023-07-09T05:23:15;6.20;;;5.80;;
15261;SDS011;7733;51.554;13.590;2023-07-09T05:25:41;6.30;;;5.90;;
15261;SDS011;7733;51.554;13.590;2023-07-09T05:28:07;6.37;;;5.87;;
15261;SDS011;7733;51.554;13.590;2023-07-09T05:30:33;6.47;;;5.53;;
15261;SDS011;7733;51.554;13.590;2023-07-09T05:32:59;6.30;;;5.90;;
15261;SDS011;7733;51.554;13.590;2023-07-09T05:35:25;6.20;;;5.80;;
15261;SDS011;7733;51.554;13.590;2023-07-09T05:37:52;6.23;;;5.70;;
15261;SDS011;7733;51.554;13.590;2023-07-09T05:40:19;5.77;;;5.47;;
15261;SDS011;7733;51.554;13.590;2023-07-09T05:42:46;6.23;;;5.63;;
15261;SDS011;7733;51.554;13.590;2023-07-09T05:45:14;5.80;;;5.47;;
15261;SDS011;7733;51.554;13.590;2023-07-09T05:47:40;6.10;;;5.70;;
15261;SDS011;7733;51.554;13.590;2023-07-09T05:50:06;5.77;;;5.40;;
15261;SDS011;7733;51.554;13.590;2023-07-09T05:52:33;5.70;;;5.30;;
15261;SDS011;7733;51.554;13.590;2023-07-09T05:54:59;5.40;;;5.00;;
15261;SDS011;7733;51.554;13.590;2023-07-09T05:57:25;5.93;;;5.50;;
15261;SDS011;7733;51.554;13.590;2023-07-09T05:59:51;5.30;;;5.00;;
15261;SDS011;7733;51.554;13.590;2023-07-09T06:02:18;5.50;;;5.10;;
15261;SDS011;7733;51.554;13.590;2023-07-09T06:04:45;5.30;;;5.00;;
15261;SDS011;7733;51.554;13.590;2023-07-09T06:07:14;5.40;;;5.10;;
15261;SDS011;7733;51.554;13.590;2023-07-09T06:09:40;5.47;;;5.07;;
15261;SDS011;7733;51.554;13.590;2023-07-09T06:12:07;5.93;;;5.43;;
15261;SDS011;7733;51.554;13.590;2023-07-09T06:14:33;5.67;;;5.17;;
15261;SDS011;7733;51.554;13.590;2023-07-09T06:16:59;5.90;;;5.53;;
15261;SDS011;7733;51.554;13.590;2023-07-09T06:19:26;5.87;;;5.47;;
15261;SDS011;7733;51.554;13.590;2023-07-09T06:21:52;5.80;;;5.33;;
15261;SDS011;7733;51.554;13.590;2023-07-09T06:24:17;6.23;;;5.73;;
15261;SDS011;7733;51.554;13.590;2023-07-09T06:26:44;5.70;;;5.30;;
15261;SDS011;7733;51.554;13.590;2023-07-09T06:29:10;5.37;;;4.97;;
15261;SDS011;7733;51.554;13.590;2023-07-09T06:31:35;5.83;;;5.43;;
15261;SDS011;7733;51.554;13.590;2023-07-09T06:34:02;5.93;;;5.53;;
15261;SDS011;7733;51.554;13.590;2023-07-09T06:36:28;5.50;;;5.10;;
15261;SDS011;7733;51.554;13.590;2023-07-09T06:38:54;5.70;;;5.40;;
15261;SDS011;7733;51.554;13.590;2023-07-09T06:41:20;6.20;;;5.50;;
15261;SDS011;7733;51.554;13.590;2023-07-09T06:43:46;6.00;;;5.60;;
15261;SDS011;7733;51.554;13.590;2023-07-09T06:46:12;5.97;;;5.57;;
15261;SDS011;7733;51.554;13.590;2023-07-09T06:48:40;5.67;;;5.17;;
15261;SDS011;7733;51.554;13.590;2023-07-09T06:51:06;5.83;;;5.47;;
15261;SDS011;7733;51.554;13.590;2023-07-09T06:53:32;5.80;;;5.50;;
15261;SDS011;7733;51.554;13.590;2023-07-09T06:55:58;5.50;;;5.13;;
15261;SDS011;7733;51.554;13.590;2023-07-09T06:58:25;5.60;;;5.30;;
15261;SDS011;7733;51.554;13.590;2023-07-09T07:00:56;5.80;;;5.40;;
15261;SDS011;7733;51.554;13.590;2023-07-09T07:03:23;5.80;;;5.30;;
15261;SDS011;7733;51.554;13.590;2023-07-09T07:05:50;5.20;;;4.77;;
15261;SDS011;7733;51.554;13.590;2023-07-09T07:08:22;5.70;;;5.33;;
15261;SDS011;7733;51.554;13.590;2023-07-09T07:10:50;5.27;;;4.87;;
15261;SDS011;7733;51.554;13.590;2023-07-09T07:16:00;5.23;;;4.93;;
15261;SDS011;7733;51.554;13.590;2023-07-09T07:18:28;5.10;;;4.60;;
15261;SDS011;7733;51.554;13.590;2023-07-09T07:20:53;5.27;;;4.90;;
15261;SDS011;7733;51.554;13.590;2023-07-09T07:23:19;5.30;;;5.00;;
15261;SDS011;7733;51.554;13.590;2023-07-09T07:25:46;5.10;;;4.70;;
15261;SDS011;7733;51.554;13.590;2023-07-09T07:28:12;5.17;;;4.87;;
15261;SDS011;7733;51.554;13.590;2023-07-09T07:30:38;4.53;;;4.33;;
15261;SDS011;7733;51.554;13.590;2023-07-09T07:33:05;4.60;;;4.30;;
15261;SDS011;7733;51.554;13.590;2023-07-09T07:35:32;5.20;;;4.90;;
15261;SDS011;7733;51.554;13.590;2023-07-09T07:37:58;4.37;;;4.17;;
15261;SDS011;7733;51.554;13.590;2023-07-09T07:40:24;4.73;;;4.53;;
15261;SDS011;7733;51.554;13.590;2023-07-09T07:42:49;4.40;;;4.03;;
15261;SDS011;7733;51.554;13.590;2023-07-09T07:45:15;5.37;;;4.80;;
15261;SDS011;7733;51.554;13.590;2023-07-09T07:47:41;4.53;;;4.23;;
15261;SDS011;7733;51.554;13.590;2023-07-09T07:50:08;4.40;;;4.20;;
15261;SDS011;7733;51.554;13.590;2023-07-09T07:52:35;4.87;;;4.53;;
15261;SDS011;7733;51.554;13.590;2023-07-09T07:55:05;4.90;;;4.53;;
15261;SDS011;7733;51.554;13.590;2023-07-09T07:57:32;4.47;;;4.17;;
15261;SDS011;7733;51.554;13.590;2023-07-09T07:59:58;4.33;;;4.13;;
15261;SDS011;7733;51.554;13.590;2023-07-09T08:02:24;4.40;;;4.20;;
15261;SDS011;7733;51.554;13.590;2023-07-09T08:04:50;4.43;;;4.07;;
15261;SDS011;7733;51.554;13.590;2023-07-09T08:07:17;4.20;;;4.00;;
15261;SDS011;7733;51.554;13.590;2023-07-09T08:09:44;3.97;;;3.77;;
15261;SDS011;7733;51.554;13.590;2023-07-09T08:12:11;4.20;;;3.90;;
15261;SDS011;7733;51.554;13.590;2023-07-09T08:14:40;3.70;;;3.57;;
15261;SDS011;7733;51.554;13.590;2023-07-09T08:17:07;4.30;;;4.00;;
15261;SDS011;7733;51.554;13.590;2023-07-09T08:19:43;4.43;;;4.03;;
15261;SDS011;7733;51.554;13.590;2023-07-09T08:22:18;5.77;;;4.07;;
15261;SDS011;7733;51.554;13.590;2023-07-09T08:24:47;4.13;;;3.83;;
15261;SDS011;7733;51.554;13.590;2023-07-09T08:27:16;4.23;;;3.93;;
15261;SDS011;7733;51.554;13.590;2023-07-09T08:29:43;3.73;;;3.40;;
15261;SDS011;7733;51.554;13.590;2023-07-09T08:32:12;3.80;;;3.57;;
15261;SDS011;7733;51.554;13.590;2023-07-09T08:34:38;3.60;;;3.40;;
15261;SDS011;7733;51.554;13.590;2023-07-09T08:37:06;3.10;;;3.00;;
15261;SDS011;7733;51.554;13.590;2023-07-09T08:39:33;3.47;;;3.27;;
15261;SDS011;7733;51.554;13.590;2023-07-09T08:50:35;3.23;;;3.03;;
15261;SDS011;7733;51.554;13.590;2023-07-09T08:53:03;2.87;;;2.77;;
15261;SDS011;7733;51.554;13.590;2023-07-09T08:55:34;3.50;;;3.20;;
15261;SDS011;7733;51.554;13.590;2023-07-09T08:58:09;4.40;;;3.00;;
15261;SDS011;7733;51.554;13.590;2023-07-09T09:00:51;3.03;;;2.93;;
15261;SDS011;7733;51.554;13.590;2023-07-09T09:06:22;3.47;;;3.17;;
15261;SDS011;7733;51.554;13.590;2023-07-09T09:11:43;3.00;;;2.80;;
15261;SDS011;7733;51.554;13.590;2023-07-09T09:14:41;2.97;;;2.70;;
15261;SDS011;7733;51.554;13.590;2023-07-09T09:17:12;2.60;;;2.40;;
15261;SDS011;7733;51.554;13.590;2023-07-09T09:22:48;2.83;;;2.63;;
15261;SDS011;7733;51.554;13.590;2023-07-09T09:27:40;2.77;;;2.67;;
15261;SDS011;7733;51.554;13.590;2023-07-09T09:30:24;3.23;;;3.03;;
15261;SDS011;7733;51.554;13.590;2023-07-09T09:32:57;3.23;;;3.03;;
15261;SDS011;7733;51.554;13.590;2023-07-09T09:35:30;3.03;;;2.70;;
15261;SDS011;7733;51.554;13.590;2023-07-09T09:37:58;2.77;;;2.67;;
15261;SDS011;7733;51.554;13.590;2023-07-09T09:40:26;3.27;;;2.97;;
15261;SDS011;7733;51.554;13.590;2023-07-09T09:42:58;5.00;;;2.90;;
15261;SDS011;7733;51.554;13.590;2023-07-09T09:45:32;3.00;;;2.90;;
15261;SDS011;7733;51.554;13.590;2023-07-09T09:51:05;2.87;;;2.67;;
15261;SDS011;7733;51.554;13.590;2023-07-09T09:53:34;3.20;;;2.50;;
15261;SDS011;7733;51.554;13.590;2023-07-09T09:56:06;4.83;;;3.03;;
15261;SDS011;7733;51.554;13.590;2023-07-09T09:58:40;2.90;;;2.70;;
15261;SDS011;7733;51.554;13.590;2023-07-09T10:01:16;3.00;;;2.80;;
15261;SDS011;7733;51.554;13.590;2023-07-09T10:03:43;2.73;;;2.53;;
15261;SDS011;7733;51.554;13.590;2023-07-09T10:06:17;3.00;;;2.80;;
15261;SDS011;7733;51.554;13.590;2023-07-09T10:08:57;2.60;;;2.50;;
15261;SDS011;7733;51.554;13.590;2023-07-09T10:17:35;3.40;;;2.77;;
15261;SDS011;7733;51.554;13.590;2023-07-09T10:23:58;3.43;;;3.23;;
15261;SDS011;7733;51.554;13.590;2023-07-09T10:30:33;2.80;;;2.70;;
15261;SDS011;7733;51.554;13.590;2023-07-09T10:33:09;3.17;;;2.87;;
15261;SDS011;7733;51.554;13.590;2023-07-09T10:39:08;3.13;;;2.90;;
15261;SDS011;7733;51.554;13.590;2023-07-09T10:41:44;3.57;;;3.27;;
15261;SDS011;7733;51.554;13.590;2023-07-09T10:47:02;3.73;;;3.17;;
15261;SDS011;7733;51.554;13.590;2023-07-09T10:49:37;3.00;;;2.80;;
15261;SDS011;7733;51.554;13.590;2023-07-09T10:52:11;3.30;;;3.00;;
15261;SDS011;7733;51.554;13.590;2023-07-09T10:57:52;2.93;;;2.73;;
15261;SDS011;7733;51.554;13.590;2023-07-09T11:00:39;2.80;;;2.70;;
15261;SDS011;7733;51.554;13.590;2023-07-09T11:03:13;4.67;;;2.90;;
15261;SDS011;7733;51.554;13.590;2023-07-09T11:06:12;3.17;;;3.07;;
15261;SDS011;7733;51.554;13.590;2023-07-09T11:09:05;2.90;;;2.63;;
15261;SDS011;7733;51.554;13.590;2023-07-09T11:11:51;3.37;;;3.27;;
15261;SDS011;7733;51.554;13.590;2023-07-09T11:17:02;3.20;;;2.90;;
15261;SDS011;7733;51.554;13.590;2023-07-09T11:19:31;4.50;;;3.10;;
15261;SDS011;7733;51.554;13.590;2023-07-09T11:22:13;2.90;;;2.70;;
15261;SDS011;7733;51.554;13.590;2023-07-09T11:24:53;3.10;;;2.90;;
15261;SDS011;7733;51.554;13.590;2023-07-09T11:27:49;4.87;;;3.43;;
15261;SDS011;7733;51.554;13.590;2023-07-09T11:30:27;3.10;;;2.90;;
15261;SDS011;7733;51.554;13.590;2023-07-09T11:32:59;2.87;;;2.77;;
15261;SDS011;7733;51.554;13.590;2023-07-09T11:35:44;3.20;;;3.00;;
15261;SDS011;7733;51.554;13.590;2023-07-09T11:38:22;3.00;;;2.90;;
15261;SDS011;7733;51.554;13.590;2023-07-09T11:40:51;2.83;;;2.63;;
15261;SDS011;7733;51.554;13.590;2023-07-09T11:43:33;3.20;;;3.00;;
15261;SDS011;7733;51.554;13.590;2023-07-09T11:46:12;3.00;;;2.80;;
15261;SDS011;7733;51.554;13.590;2023-07-09T11:48:45;3.30;;;3.10;;
15261;SDS011;7733;51.554;13.590;2023-07-09T11:51:17;7.60;;;3.00;;
15261;SDS011;7733;51.554;13.590;2023-07-09T11:54:01;3.40;;;3.20;;
15261;SDS011;7733;51.554;13.590;2023-07-09T11:58:56;3.50;;;2.90;;
15261;SDS011;7733;51.554;13.590;2023-07-09T12:02:05;3.13;;;2.83;;
15261;SDS011;7733;51.554;13.590;2023-07-09T12:04:14;3.10;;;3.00;;
15261;SDS011;7733;51.554;13.590;2023-07-09T12:06:44;3.20;;;3.00;;
15261;SDS011;7733;51.554;13.590;2023-07-09T12:09:18;3.30;;;3.20;;
15261;SDS011;7733;51.554;13.590;2023-07-09T12:11:47;3.47;;;3.17;;
15261;SDS011;7733;51.554;13.590;2023-07-09T12:14:16;2.93;;;2.80;;
15261;SDS011;7733;51.554;13.590;2023-07-09T12:16:45;3.17;;;2.87;;
15261;SDS011;7733;51.554;13.590;2023-07-09T12:19:20;3.63;;;3.33;;
15261;SDS011;7733;51.554;13.590;2023-07-09T12:21:50;2.90;;;2.80;;
15261;SDS011;7733;51.554;13.590;2023-07-09T12:24:22;3.20;;;3.00;;
15261;SDS011;7733;51.554;13.590;2023-07-09T12:26:58;3.53;;;3.23;;
15261;SDS011;7733;51.554;13.590;2023-07-09T12:29:26;3.47;;;3.17;;
15261;SDS011;7733;51.554;13.590;2023-07-09T12:31:58;3.20;;;3.10;;
15261;SDS011;7733;51.554;13.590;2023-07-09T12:34:30;6.47;;;2.90;;
15261;SDS011;7733;51.554;13.590;2023-07-09T12:36:57;2.93;;;2.83;;
15261;SDS011;7733;51.554;13.590;2023-07-09T12:39:24;3.17;;;2.97;;
15261;SDS011;7733;51.554;13.590;2023-07-09T12:41:59;3.00;;;2.90;;
15261;SDS011;7733;51.554;13.590;2023-07-09T12:44:28;2.93;;;2.83;;
15261;SDS011;7733;51.554;13.590;2023-07-09T12:47:01;3.10;;;2.90;;
15261;SDS011;7733;51.554;13.590;2023-07-09T12:49:28;3.27;;;3.03;;
15261;SDS011;7733;51.554;13.590;2023-07-09T12:52:07;3.40;;;3.20;;
15261;SDS011;7733;51.554;13.590;2023-07-09T12:54:59;3.23;;;3.03;;
15261;SDS011;7733;51.554;13.590;2023-07-09T12:57:27;3.40;;;3.20;;
15261;SDS011;7733;51.554;13.590;2023-07-09T12:59:55;3.37;;;3.27;;
15261;SDS011;7733;51.554;13.590;2023-07-09T13:04:50;3.20;;;3.00;;
15261;SDS011;7733;51.554;13.590;2023-07-09T13:07:27;3.13;;;3.03;;
15261;SDS011;7733;51.554;13.590;2023-07-09T13:10:03;3.23;;;2.97;;
15261;SDS011;7733;51.554;13.590;2023-07-09T13:12:31;3.30;;;3.10;;
15261;SDS011;7733;51.554;13.590;2023-07-09T13:14:58;3.50;;;3.30;;
15261;SDS011;7733;51.554;13.590;2023-07-09T13:17:28;3.70;;;3.30;;
15261;SDS011;7733;51.554;13.590;2023-07-09T13:19:56;3.20;;;3.10;;
15261;SDS011;7733;51.554;13.590;2023-07-09T13:22:22;3.50;;;3.30;;
15261;SDS011;7733;51.554;13.590;2023-07-09T13:24:49;3.30;;;3.10;;
15261;SDS011;7733;51.554;13.590;2023-07-09T13:27:15;3.03;;;2.83;;
15261;SDS011;7733;51.554;13.590;2023-07-09T13:29:41;3.13;;;3.03;;
15261;SDS011;7733;51.554;13.590;2023-07-09T13:32:09;3.23;;;3.10;;
15261;SDS011;7733;51.554;13.590;2023-07-09T13:34:36;3.53;;;3.33;;
15261;SDS011;7733;51.554;13.590;2023-07-09T13:37:04;3.40;;;3.20;;
15261;SDS011;7733;51.554;13.590;2023-07-09T13:39:33;3.77;;;3.40;;
15261;SDS011;7733;51.554;13.590;2023-07-09T13:42:00;3.23;;;3.10;;
15261;SDS011;7733;51.554;13.590;2023-07-09T13:44:27;3.47;;;3.03;;
15261;SDS011;7733;51.554;13.590;2023-07-09T13:46:58;3.43;;;3.30;;
15261;SDS011;7733;51.554;13.590;2023-07-09T13:49:25;3.87;;;3.60;;
15261;SDS011;7733;51.554;13.590;2023-07-09T13:51:53;3.20;;;3.00;;
15261;SDS011;7733;51.554;13.590;2023-07-09T13:54:26;3.13;;;2.83;;
15261;SDS011;7733;51.554;13.590;2023-07-09T13:57:00;3.10;;;2.90;;
15261;SDS011;7733;51.554;13.590;2023-07-09T13:59:37;3.47;;;3.17;;
15261;SDS011;7733;51.554;13.590;2023-07-09T14:02:07;3.60;;;3.40;;
15261;SDS011;7733;51.554;13.590;2023-07-09T14:04:49;3.27;;;3.07;;
15261;SDS011;7733;51.554;13.590;2023-07-09T14:09:57;3.50;;;3.30;;
15261;SDS011;7733;51.554;13.590;2023-07-09T14:12:24;3.87;;;3.17;;
15261;SDS011;7733;51.554;13.590;2023-07-09T14:14:52;3.10;;;2.90;;
15261;SDS011;7733;51.554;13.590;2023-07-09T14:17:20;3.30;;;3.10;;
15261;SDS011;7733;51.554;13.590;2023-07-09T14:19:47;3.10;;;2.90;;
15261;SDS011;7733;51.554;13.590;2023-07-09T14:22:35;5.83;;;3.50;;
15261;SDS011;7733;51.554;13.590;2023-07-09T14:25:01;3.47;;;3.27;;
15261;SDS011;7733;51.554;13.590;2023-07-09T14:27:30;3.60;;;3.33;;
15261;SDS011;7733;51.554;13.590;2023-07-09T14:29:56;3.40;;;3.20;;
15261;SDS011;7733;51.554;13.590;2023-07-09T14:32:36;3.93;;;3.13;;
15261;SDS011;7733;51.554;13.590;2023-07-09T14:35:09;3.13;;;2.83;;
15261;SDS011;7733;51.554;13.590;2023-07-09T14:37:42;3.20;;;3.00;;
15261;SDS011;7733;51.554;13.590;2023-07-09T14:40:10;3.63;;;3.30;;
15261;SDS011;7733;51.554;13.590;2023-07-09T14:42:38;4.33;;;3.23;;
15261;SDS011;7733;51.554;13.590;2023-07-09T14:45:06;3.27;;;3.03;;
15261;SDS011;7733;51.554;13.590;2023-07-09T14:47:49;3.70;;;3.40;;
15261;SDS011;7733;51.554;13.590;2023-07-09T14:50:16;3.87;;;3.13;;
15261;SDS011;7733;51.554;13.590;2023-07-09T14:52:45;3.07;;;2.87;;
15261;SDS011;7733;51.554;13.590;2023-07-09T14:55:21;3.30;;;3.20;;
15261;SDS011;7733;51.554;13.590;2023-07-09T14:57:49;3.70;;;3.50;;
15261;SDS011;7733;51.554;13.590;2023-07-09T15:00:19;3.20;;;3.10;;
15261;SDS011;7733;51.554;13.590;2023-07-09T15:02:48;4.10;;;3.70;;
15261;SDS011;7733;51.554;13.590;2023-07-09T15:05:21;3.73;;;3.43;;
15261;SDS011;7733;51.554;13.590;2023-07-09T15:07:50;3.43;;;3.20;;
15261;SDS011;7733;51.554;13.590;2023-07-09T15:10:22;3.60;;;3.30;;
15261;SDS011;7733;51.554;13.590;2023-07-09T15:12:52;3.87;;;3.57;;
15261;SDS011;7733;51.554;13.590;2023-07-09T15:15:23;3.70;;;3.40;;
15261;SDS011;7733;51.554;13.590;2023-07-09T15:17:53;7.37;;;3.37;;
15261;SDS011;7733;51.554;13.590;2023-07-09T15:20:29;3.50;;;3.40;;
15261;SDS011;7733;51.554;13.590;2023-07-09T15:22:56;3.70;;;3.50;;
15261;SDS011;7733;51.554;13.590;2023-07-09T15:25:26;3.37;;;3.23;;
15261;SDS011;7733;51.554;13.590;2023-07-09T15:27:55;3.20;;;3.10;;
15261;SDS011;7733;51.554;13.590;2023-07-09T15:30:26;3.40;;;3.10;;
15261;SDS011;7733;51.554;13.590;2023-07-09T15:32:56;3.33;;;3.13;;
15261;SDS011;7733;51.554;13.590;2023-07-09T15:35:26;3.57;;;3.27;;
15261;SDS011;7733;51.554;13.590;2023-07-09T15:37:58;4.00;;;3.20;;
15261;SDS011;7733;51.554;13.590;2023-07-09T15:40:25;3.50;;;3.30;;
15261;SDS011;7733;51.554;13.590;2023-07-09T15:42:55;3.13;;;2.93;;
15261;SDS011;7733;51.554;13.590;2023-07-09T15:45:25;3.33;;;3.13;;
15261;SDS011;7733;51.554;13.590;2023-07-09T15:47:51;3.10;;;3.00;;
15261;SDS011;7733;51.554;13.590;2023-07-09T15:50:19;3.70;;;3.40;;
15261;SDS011;7733;51.554;13.590;2023-07-09T15:52:50;4.40;;;4.17;;
15261;SDS011;7733;51.554;13.590;2023-07-09T15:55:17;3.07;;;2.97;;
15261;SDS011;7733;51.554;13.590;2023-07-09T15:57:49;3.23;;;3.03;;
15261;SDS011;7733;51.554;13.590;2023-07-09T16:02:50;3.70;;;3.43;;
15261;SDS011;7733;51.554;13.590;2023-07-09T16:07:49;4.33;;;3.70;;
15261;SDS011;7733;51.554;13.590;2023-07-09T16:10:17;3.67;;;3.47;;
15261;SDS011;7733;51.554;13.590;2023-07-09T16:12:44;3.30;;;3.10;;